sensor_id;sensor_type;location;lat;lon;timestamp;pressure;altitude;pressure_sealevel;temperature
49785;BMP280;35679;38.732;-121.358;2024-03-29T00:02:09;101199.28;;;21.56
49785;BMP280;35679;38.732;-121.358;2024-03-29T00:04:57;101199.91;;;21.51
49785;BMP280;35679;38.732;-121.358;2024-03-29T00:07:44;101203.81;;;21.55
49785;BMP280;35679;38.732;-121.358;2024-03-29T00:10:33;101197.41;;;21.56
49785;BMP280;35679;38.732;-121.358;2024-03-29T00:13:21;101203.81;;;21.55
49785;BMP280;35679;38.732;-121.358;2024-03-29T00:16:09;101197.19;;;21.58
49785;BMP280;35679;38.732;-121.358;2024-03-29T00:18:58;101197.88;;;21.53
49785;BMP280;35679;38.732;-121.358;2024-03-29T00:21:46;101194.97;;;21.55
49785;BMP280;35679;38.732;-121.358;2024-03-29T00:24:34;101199.53;;;21.54
49785;BMP280;35679;38.732;-121.358;2024-03-29T00:27:21;101183.63;;;21.53
49785;BMP280;35679;38.732;-121.358;2024-03-29T00:30:12;101186.50;;;21.51
49785;BMP280;35679;38.732;-121.358;2024-03-29T00:33:00;101189.41;;;21.50
49785;BMP280;35679;38.732;-121.358;2024-03-29T00:35:48;101191.28;;;21.49
49785;BMP280;35679;38.732;-121.358;2024-03-29T00:38:35;101189.84;;;21.47
49785;BMP280;35679;38.732;-121.358;2024-03-29T00:41:23;101189.28;;;21.45
49785;BMP280;35679;38.732;-121.358;2024-03-29T00:44:11;101189.72;;;21.42
49785;BMP280;35679;38.732;-121.358;2024-03-29T00:46:59;101190.78;;;21.41
49785;BMP280;35679;38.732;-121.358;2024-03-29T00:49:47;101202.19;;;21.36
49785;BMP280;35679;38.732;-121.358;2024-03-29T00:52:35;101200.53;;;21.35
49785;BMP280;35679;38.732;-121.358;2024-03-29T00:55:23;101198.09;;;21.34
49785;BMP280;35679;38.732;-121.358;2024-03-29T00:58:11;101198.56;;;21.31
49785;BMP280;35679;38.732;-121.358;2024-03-29T01:00:58;101204.13;;;21.29
49785;BMP280;35679;38.732;-121.358;2024-03-29T01:03:46;101208.06;;;21.27
49785;BMP280;35679;38.732;-121.358;2024-03-29T01:06:34;101202.94;;;21.25
49785;BMP280;35679;38.732;-121.358;2024-03-29T01:09:22;101196.97;;;21.23
49785;BMP280;35679;38.732;-121.358;2024-03-29T01:12:10;101201.75;;;21.21
49785;BMP280;35679;38.732;-121.358;2024-03-29T01:14:58;101207.34;;;21.20
49785;BMP280;35679;38.732;-121.358;2024-03-29T01:17:46;101208.38;;;21.19
49785;BMP280;35679;38.732;-121.358;2024-03-29T01:20:34;101201.59;;;21.16
49785;BMP280;35679;38.732;-121.358;2024-03-29T01:23:21;101199.97;;;21.15
49785;BMP280;35679;38.732;-121.358;2024-03-29T01:26:09;101204.72;;;21.13
49785;BMP280;35679;38.732;-121.358;2024-03-29T01:28:59;101198.78;;;21.11
49785;BMP280;35679;38.732;-121.358;2024-03-29T01:31:47;101197.34;;;21.09
49785;BMP280;35679;38.732;-121.358;2024-03-29T01:34:34;101194.91;;;21.08
49785;BMP280;35679;38.732;-121.358;2024-03-29T01:37:22;101191.59;;;21.06
49785;BMP280;35679;38.732;-121.358;2024-03-29T01:40:10;101199.81;;;21.10
49785;BMP280;35679;38.732;-121.358;2024-03-29T01:43:00;101201.72;;;21.04
49785;BMP280;35679;38.732;-121.358;2024-03-29T01:45:49;101202.19;;;21.01
49785;BMP280;35679;38.732;-121.358;2024-03-29T01:48:38;101200.53;;;21.00
49785;BMP280;35679;38.732;-121.358;2024-03-29T01:51:26;101209.06;;;20.97
49785;BMP280;35679;38.732;-121.358;2024-03-29T01:54:13;101204.13;;;20.94
49785;BMP280;35679;38.732;-121.358;2024-03-29T01:57:01;101203.53;;;20.92
49785;BMP280;35679;38.732;-121.358;2024-03-29T01:59:49;101198.16;;;20.92
49785;BMP280;35679;38.732;-121.358;2024-03-29T02:02:37;101191.38;;;20.89
49785;BMP280;35679;38.732;-121.358;2024-03-29T02:05:25;101203.38;;;20.87
49785;BMP280;35679;38.732;-121.358;2024-03-29T02:08:14;101196.38;;;20.86
49785;BMP280;35679;38.732;-121.358;2024-03-29T02:11:03;101194.72;;;20.85
49785;BMP280;35679;38.732;-121.358;2024-03-29T02:13:52;101196.22;;;20.81
49785;BMP280;35679;38.732;-121.358;2024-03-29T02:16:39;101189.19;;;20.80
49785;BMP280;35679;38.732;-121.358;2024-03-29T02:19:29;101187.78;;;20.77
49785;BMP280;35679;38.732;-121.358;2024-03-29T02:22:17;101186.13;;;20.76
49785;BMP280;35679;38.732;-121.358;2024-03-29T02:25:07;101190.69;;;20.76
49785;BMP280;35679;38.732;-121.358;2024-03-29T02:27:55;101184.72;;;20.74
49785;BMP280;35679;38.732;-121.358;2024-03-29T02:30:43;101187.59;;;20.72
49785;BMP280;35679;38.732;-121.358;2024-03-29T02:33:31;101185.34;;;20.69
49785;BMP280;35679;38.732;-121.358;2024-03-29T02:36:19;101181.25;;;20.67
49785;BMP280;35679;38.732;-121.358;2024-03-29T02:39:06;101169.09;;;20.64
49785;BMP280;35679;38.732;-121.358;2024-03-29T02:41:54;101179.81;;;20.64
49785;BMP280;35679;38.732;-121.358;2024-03-29T02:44:42;101177.38;;;20.63
49785;BMP280;35679;38.732;-121.358;2024-03-29T02:47:30;101178.41;;;20.62
49785;BMP280;35679;38.732;-121.358;2024-03-29T02:50:17;101175.94;;;20.60
49785;BMP280;35679;38.732;-121.358;2024-03-29T02:53:05;101180.50;;;20.60
49785;BMP280;35679;38.732;-121.358;2024-03-29T02:55:53;101178.84;;;20.59
49785;BMP280;35679;38.732;-121.358;2024-03-29T02:58:41;101168.28;;;20.64
49785;BMP280;35679;38.732;-121.358;2024-03-29T03:01:28;101163.16;;;20.62
49785;BMP280;35679;38.732;-121.358;2024-03-29T03:04:16;101159.84;;;20.60
49785;BMP280;35679;38.732;-121.358;2024-03-29T03:07:04;101162.38;;;20.55
49785;BMP280;35679;38.732;-121.358;2024-03-29T03:10:10;101162.63;;;20.54
49785;BMP280;35679;38.732;-121.358;2024-03-29T03:13:16;101152.91;;;20.53
49785;BMP280;35679;38.732;-121.358;2024-03-29T03:16:04;101156.41;;;20.53
49785;BMP280;35679;38.732;-121.358;2024-03-29T03:18:52;101163.66;;;20.53
49785;BMP280;35679;38.732;-121.358;2024-03-29T03:21:40;101155.59;;;20.53
49785;BMP280;35679;38.732;-121.358;2024-03-29T03:24:27;101156.06;;;20.50
49785;BMP280;35679;38.732;-121.358;2024-03-29T03:27:15;101156.72;;;20.45
49785;BMP280;35679;38.732;-121.358;2024-03-29T03:30:03;101157.97;;;20.43
49785;BMP280;35679;38.732;-121.358;2024-03-29T03:32:51;101154.91;;;20.40
49785;BMP280;35679;38.732;-121.358;2024-03-29T03:35:39;101166.25;;;20.42
49785;BMP280;35679;38.732;-121.358;2024-03-29T03:38:27;101160.25;;;20.40
49785;BMP280;35679;38.732;-121.358;2024-03-29T03:41:14;101159.69;;;20.38
49785;BMP280;35679;38.732;-121.358;2024-03-29T03:44:02;101158.84;;;20.37
49785;BMP280;35679;38.732;-121.358;2024-03-29T03:46:51;101156.84;;;20.33
49785;BMP280;35679;38.732;-121.358;2024-03-29T03:49:39;101157.88;;;20.32
49785;BMP280;35679;38.732;-121.358;2024-03-29T03:52:26;101160.75;;;20.30
49785;BMP280;35679;38.732;-121.358;2024-03-29T03:55:14;101153.16;;;20.27
49785;BMP280;35679;38.732;-121.358;2024-03-29T03:58:02;101152.19;;;20.22
49785;BMP280;35679;38.732;-121.358;2024-03-29T04:00:50;101153.00;;;20.22
49785;BMP280;35679;38.732;-121.358;2024-03-29T04:03:38;101156.13;;;20.19
49785;BMP280;35679;38.732;-121.358;2024-03-29T04:06:26;101157.16;;;20.18
49785;BMP280;35679;38.732;-121.358;2024-03-29T04:09:14;101147.94;;;20.14
49785;BMP280;35679;38.732;-121.358;2024-03-29T04:12:05;101150.59;;;20.14
49785;BMP280;35679;38.732;-121.358;2024-03-29T04:14:53;101154.31;;;20.13
49785;BMP280;35679;38.732;-121.358;2024-03-29T04:17:41;101149.38;;;20.10
49785;BMP280;35679;38.732;-121.358;2024-03-29T04:20:28;101146.13;;;20.08
49785;BMP280;35679;38.732;-121.358;2024-03-29T04:23:16;101149.81;;;20.07
49785;BMP280;35679;38.732;-121.358;2024-03-29T04:26:04;101147.78;;;20.03
49785;BMP280;35679;38.732;-121.358;2024-03-29T04:28:53;101140.78;;;20.02
49785;BMP280;35679;38.732;-121.358;2024-03-29T04:31:40;101148.47;;;19.98
49785;BMP280;35679;38.732;-121.358;2024-03-29T04:34:28;101147.03;;;19.96
49785;BMP280;35679;38.732;-121.358;2024-03-29T04:37:16;101148.88;;;19.95
49785;BMP280;35679;38.732;-121.358;2024-03-29T04:40:04;101142.28;;;19.91
49785;BMP280;35679;38.732;-121.358;2024-03-29T04:42:53;101146.00;;;19.90
49785;BMP280;35679;38.732;-121.358;2024-03-29T04:45:40;101147.25;;;19.88
49785;BMP280;35679;38.732;-121.358;2024-03-29T04:48:28;101144.78;;;19.86
49785;BMP280;35679;38.732;-121.358;2024-03-29T04:51:19;101144.19;;;19.84
49785;BMP280;35679;38.732;-121.358;2024-03-29T04:54:06;101145.66;;;19.80
49785;BMP280;35679;38.732;-121.358;2024-03-29T04:56:54;101139.69;;;19.78
49785;BMP280;35679;38.732;-121.358;2024-03-29T04:59:42;101140.34;;;19.74
49785;BMP280;35679;38.732;-121.358;2024-03-29T05:02:29;101144.28;;;19.72
49785;BMP280;35679;38.732;-121.358;2024-03-29T05:05:17;101144.28;;;19.72
49785;BMP280;35679;38.732;-121.358;2024-03-29T05:08:05;101144.88;;;19.73
49785;BMP280;35679;38.732;-121.358;2024-03-29T05:10:53;101149.03;;;19.70
49785;BMP280;35679;38.732;-121.358;2024-03-29T05:13:41;101148.22;;;19.69
49785;BMP280;35679;38.732;-121.358;2024-03-29T05:16:28;101135.47;;;19.65
49785;BMP280;35679;38.732;-121.358;2024-03-29T05:19:16;101140.19;;;19.63
49785;BMP280;35679;38.732;-121.358;2024-03-29T05:22:04;101144.97;;;19.61
49785;BMP280;35679;38.732;-121.358;2024-03-29T05:24:55;101141.91;;;19.57
49785;BMP280;35679;38.732;-121.358;2024-03-29T05:27:42;101134.09;;;19.56
49785;BMP280;35679;38.732;-121.358;2024-03-29T05:30:30;101127.31;;;19.53
49785;BMP280;35679;38.732;-121.358;2024-03-29T05:33:18;101117.84;;;19.51
49785;BMP280;35679;38.732;-121.358;2024-03-29T05:36:06;101122.16;;;19.52
49785;BMP280;35679;38.732;-121.358;2024-03-29T05:38:55;101122.59;;;19.49
49785;BMP280;35679;38.732;-121.358;2024-03-29T05:41:43;101118.25;;;19.48
49785;BMP280;35679;38.732;-121.358;2024-03-29T05:44:31;101126.72;;;19.45
49785;BMP280;35679;38.732;-121.358;2024-03-29T05:47:18;101119.94;;;19.42
49785;BMP280;35679;38.732;-121.358;2024-03-29T05:50:06;101126.09;;;19.43
49785;BMP280;35679;38.732;-121.358;2024-03-29T05:52:54;101113.38;;;19.38
49785;BMP280;35679;38.732;-121.358;2024-03-29T05:55:42;101110.91;;;19.37
49785;BMP280;35679;38.732;-121.358;2024-03-29T05:58:30;101108.44;;;19.35
49785;BMP280;35679;38.732;-121.358;2024-03-29T06:01:18;101101.66;;;19.33
49785;BMP280;35679;38.732;-121.358;2024-03-29T06:04:05;101100.03;;;19.32
49785;BMP280;35679;38.732;-121.358;2024-03-29T06:07:02;101090.56;;;19.29
49785;BMP280;35679;38.732;-121.358;2024-03-29T06:09:50;101080.31;;;19.26
49785;BMP280;35679;38.732;-121.358;2024-03-29T06:12:38;101087.53;;;19.26
49785;BMP280;35679;38.732;-121.358;2024-03-29T06:15:26;101096.59;;;19.25
49785;BMP280;35679;38.732;-121.358;2024-03-29T06:18:31;101105.88;;;19.22
49785;BMP280;35679;38.732;-121.358;2024-03-29T06:21:19;101098.88;;;19.21
49785;BMP280;35679;38.732;-121.358;2024-03-29T06:24:11;101092.69;;;19.21
49785;BMP280;35679;38.732;-121.358;2024-03-29T06:27:03;101085.94;;;19.18
49785;BMP280;35679;38.732;-121.358;2024-03-29T06:29:51;101089.81;;;19.16
49785;BMP280;35679;38.732;-121.358;2024-03-29T06:32:39;101081.22;;;19.14
49785;BMP280;35679;38.732;-121.358;2024-03-29T06:35:27;101068.25;;;19.11
49785;BMP280;35679;38.732;-121.358;2024-03-29T06:38:15;101071.97;;;19.10
49785;BMP280;35679;38.732;-121.358;2024-03-29T06:41:02;101067.88;;;19.08
49785;BMP280;35679;38.732;-121.358;2024-03-29T06:43:51;101068.88;;;19.07
49785;BMP280;35679;38.732;-121.358;2024-03-29T06:46:38;101063.94;;;19.04
49785;BMP280;35679;38.732;-121.358;2024-03-29T06:49:27;101068.25;;;19.05
49785;BMP280;35679;38.732;-121.358;2024-03-29T06:52:14;101072.59;;;18.99
49785;BMP280;35679;38.732;-121.358;2024-03-29T06:55:02;101074.66;;;18.97
49785;BMP280;35679;38.732;-121.358;2024-03-29T06:57:50;101063.16;;;18.97
49785;BMP280;35679;38.732;-121.358;2024-03-29T07:00:38;101046.88;;;18.98
49785;BMP280;35679;38.732;-121.358;2024-03-29T07:03:26;101058.44;;;18.92
49785;BMP280;35679;38.732;-121.358;2024-03-29T07:06:14;101045.28;;;18.91
49785;BMP280;35679;38.732;-121.358;2024-03-29T07:09:02;101050.84;;;18.89
49785;BMP280;35679;38.732;-121.358;2024-03-29T07:11:51;101045.91;;;18.86
49785;BMP280;35679;38.732;-121.358;2024-03-29T07:14:39;101037.88;;;18.86
49785;BMP280;35679;38.732;-121.358;2024-03-29T07:17:27;101029.88;;;18.86
49785;BMP280;35679;38.732;-121.358;2024-03-29T07:20:15;101009.94;;;18.82
49785;BMP280;35679;38.732;-121.358;2024-03-29T07:23:02;101020.03;;;18.80
49785;BMP280;35679;38.732;-121.358;2024-03-29T07:26:04;101011.41;;;18.78
49785;BMP280;35679;38.732;-121.358;2024-03-29T07:28:52;101008.28;;;18.81
49785;BMP280;35679;38.732;-121.358;2024-03-29T07:31:40;101006.66;;;18.80
49785;BMP280;35679;38.732;-121.358;2024-03-29T07:34:27;101007.91;;;18.78
49785;BMP280;35679;38.732;-121.358;2024-03-29T07:37:15;101021.31;;;18.71
49785;BMP280;35679;38.732;-121.358;2024-03-29T07:40:04;101004.66;;;18.69
49785;BMP280;35679;38.732;-121.358;2024-03-29T07:42:52;100998.09;;;18.65
49785;BMP280;35679;38.732;-121.358;2024-03-29T07:45:40;100998.94;;;18.66
49785;BMP280;35679;38.732;-121.358;2024-03-29T07:48:30;100996.44;;;18.64
49785;BMP280;35679;38.732;-121.358;2024-03-29T07:51:18;100994.22;;;18.61
49785;BMP280;35679;38.732;-121.358;2024-03-29T07:54:06;100995.44;;;18.59
49785;BMP280;35679;38.732;-121.358;2024-03-29T07:56:54;100991.97;;;18.58
49785;BMP280;35679;38.732;-121.358;2024-03-29T07:59:42;100984.13;;;18.57
49785;BMP280;35679;38.732;-121.358;2024-03-29T08:02:30;100986.44;;;18.53
49785;BMP280;35679;38.732;-121.358;2024-03-29T08:05:20;100982.13;;;18.52
49785;BMP280;35679;38.732;-121.358;2024-03-29T08:08:08;100977.19;;;18.49
49785;BMP280;35679;38.732;-121.358;2024-03-29T08:10:55;100986.25;;;18.48
49785;BMP280;35679;38.732;-121.358;2024-03-29T08:13:43;100986.44;;;18.47
49785;BMP280;35679;38.732;-121.358;2024-03-29T08:16:31;100986.88;;;18.44
49785;BMP280;35679;38.732;-121.358;2024-03-29T08:19:18;100988.72;;;18.43
49785;BMP280;35679;38.732;-121.358;2024-03-29T08:22:06;100983.81;;;18.41
49785;BMP280;35679;38.732;-121.358;2024-03-29T08:24:57;100982.16;;;18.40
49785;BMP280;35679;38.732;-121.358;2024-03-29T08:27:45;100982.16;;;18.40
49785;BMP280;35679;38.732;-121.358;2024-03-29T08:30:33;100986.06;;;18.37
49785;BMP280;35679;38.732;-121.358;2024-03-29T08:33:23;100977.47;;;18.35
49785;BMP280;35679;38.732;-121.358;2024-03-29T08:36:11;100974.97;;;18.34
49785;BMP280;35679;38.732;-121.358;2024-03-29T08:38:59;100968.03;;;18.33
49785;BMP280;35679;38.732;-121.358;2024-03-29T08:41:47;100972.53;;;18.32
49785;BMP280;35679;38.732;-121.358;2024-03-29T08:44:35;100976.44;;;18.30
49785;BMP280;35679;38.732;-121.358;2024-03-29T08:47:22;100980.97;;;18.29
49785;BMP280;35679;38.732;-121.358;2024-03-29T08:50:10;100982.44;;;18.25
49785;BMP280;35679;38.732;-121.358;2024-03-29T08:52:58;100983.47;;;18.24
49785;BMP280;35679;38.732;-121.358;2024-03-29T08:55:46;100982.63;;;18.24
49785;BMP280;35679;38.732;-121.358;2024-03-29T08:58:35;100975.25;;;18.19
49785;BMP280;35679;38.732;-121.358;2024-03-29T09:01:23;100978.72;;;18.20
49785;BMP280;35679;38.732;-121.358;2024-03-29T09:04:13;100975.25;;;18.19
49785;BMP280;35679;38.732;-121.358;2024-03-29T09:07:03;100973.78;;;18.17
49785;BMP280;35679;38.732;-121.358;2024-03-29T09:09:50;100971.31;;;18.15
49785;BMP280;35679;38.732;-121.358;2024-03-29T09:12:38;100973.16;;;18.15
49785;BMP280;35679;38.732;-121.358;2024-03-29T09:15:26;100964.53;;;18.13
49785;BMP280;35679;38.732;-121.358;2024-03-29T09:18:13;100973.59;;;18.12
49785;BMP280;35679;38.732;-121.358;2024-03-29T09:21:06;100958.81;;;18.09
49785;BMP280;35679;38.732;-121.358;2024-03-29T09:23:56;100954.72;;;18.07
49785;BMP280;35679;38.732;-121.358;2024-03-29T09:26:43;100959.22;;;18.06
49785;BMP280;35679;38.732;-121.358;2024-03-29T09:29:31;100955.53;;;18.01
49785;BMP280;35679;38.732;-121.358;2024-03-29T09:32:19;100949.38;;;18.00
49785;BMP280;35679;38.732;-121.358;2024-03-29T09:35:08;100946.69;;;18.00
49785;BMP280;35679;38.732;-121.358;2024-03-29T09:37:56;100939.94;;;17.98
49785;BMP280;35679;38.732;-121.358;2024-03-29T09:40:47;100936.66;;;17.96
49785;BMP280;35679;38.732;-121.358;2024-03-29T09:43:38;100936.66;;;17.96
49785;BMP280;35679;38.732;-121.358;2024-03-29T09:46:27;100938.28;;;17.97
49785;BMP280;35679;38.732;-121.358;2024-03-29T09:49:16;100939.13;;;17.97
49785;BMP280;35679;38.732;-121.358;2024-03-29T09:52:05;100932.56;;;17.93
49785;BMP280;35679;38.732;-121.358;2024-03-29T09:54:54;100919.63;;;17.90
49785;BMP280;35679;38.732;-121.358;2024-03-29T09:57:43;100927.63;;;17.90
49785;BMP280;35679;38.732;-121.358;2024-03-29T10:00:31;100926.59;;;17.91
49785;BMP280;35679;38.732;-121.358;2024-03-29T10:03:19;100916.53;;;17.87
49785;BMP280;35679;38.732;-121.358;2024-03-29T10:06:08;100915.31;;;17.83
49785;BMP280;35679;38.732;-121.358;2024-03-29T10:08:57;100907.94;;;17.85
49785;BMP280;35679;38.732;-121.358;2024-03-29T10:11:46;100911.63;;;17.84
49785;BMP280;35679;38.732;-121.358;2024-03-29T10:14:45;100911.00;;;17.82
49785;BMP280;35679;38.732;-121.358;2024-03-29T10:17:36;100906.72;;;17.81
49785;BMP280;35679;38.732;-121.358;2024-03-29T10:20:25;100903.44;;;17.79
49785;BMP280;35679;38.732;-121.358;2024-03-29T10:23:14;100894.00;;;17.76
49785;BMP280;35679;38.732;-121.358;2024-03-29T10:26:02;100889.69;;;17.75
49785;BMP280;35679;38.732;-121.358;2024-03-29T10:28:50;100891.72;;;17.73
49785;BMP280;35679;38.732;-121.358;2024-03-29T10:31:39;100895.22;;;17.74
49785;BMP280;35679;38.732;-121.358;2024-03-29T10:34:30;100886.59;;;17.72
49785;BMP280;35679;38.732;-121.358;2024-03-29T10:37:23;100886.81;;;17.71
49785;BMP280;35679;38.732;-121.358;2024-03-29T10:40:17;100883.34;;;17.70
49785;BMP280;35679;38.732;-121.358;2024-03-29T10:43:09;100879.03;;;17.69
49785;BMP280;35679;38.732;-121.358;2024-03-29T10:46:00;100874.72;;;17.68
49785;BMP280;35679;38.732;-121.358;2024-03-29T10:48:49;100866.09;;;17.66
49785;BMP280;35679;38.732;-121.358;2024-03-29T10:51:41;100871.41;;;17.66
49785;BMP280;35679;38.732;-121.358;2024-03-29T10:54:29;100862.41;;;17.61
49785;BMP280;35679;38.732;-121.358;2024-03-29T10:57:23;100852.56;;;17.61
49785;BMP280;35679;38.732;-121.358;2024-03-29T11:00:15;100851.75;;;17.61
49785;BMP280;35679;38.732;-121.358;2024-03-29T11:03:26;100843.13;;;17.59
49785;BMP280;35679;38.732;-121.358;2024-03-29T11:06:15;100844.97;;;17.58
49785;BMP280;35679;38.732;-121.358;2024-03-29T11:09:07;100840.66;;;17.57
49785;BMP280;35679;38.732;-121.358;2024-03-29T11:11:58;100835.53;;;17.56
49785;BMP280;35679;38.732;-121.358;2024-03-29T11:15:04;100827.53;;;17.56
49785;BMP280;35679;38.732;-121.358;2024-03-29T11:17:54;100815.22;;;17.55
49785;BMP280;35679;38.732;-121.358;2024-03-29T11:20:44;100819.94;;;17.53
49785;BMP280;35679;38.732;-121.358;2024-03-29T11:23:37;100809.47;;;17.51
49785;BMP280;35679;38.732;-121.358;2024-03-29T11:26:24;100802.50;;;17.50
49785;BMP280;35679;38.732;-121.358;2024-03-29T11:29:22;100805.78;;;17.52
49785;BMP280;35679;38.732;-121.358;2024-03-29T11:32:10;100807.03;;;17.50
49785;BMP280;35679;38.732;-121.358;2024-03-29T11:34:59;100799.25;;;17.48
49785;BMP280;35679;38.732;-121.358;2024-03-29T11:37:56;100797.16;;;17.57
49785;BMP280;35679;38.732;-121.358;2024-03-29T11:41:03;100799.00;;;17.63
49785;BMP280;35679;38.732;-121.358;2024-03-29T11:43:51;100796.53;;;17.61
49785;BMP280;35679;38.732;-121.358;2024-03-29T11:46:39;100793.03;;;17.61
49785;BMP280;35679;38.732;-121.358;2024-03-29T11:49:27;100790.78;;;17.64
49785;BMP280;35679;38.732;-121.358;2024-03-29T11:52:18;100793.84;;;17.68
49785;BMP280;35679;38.732;-121.358;2024-03-29T11:55:05;100792.41;;;17.72
49785;BMP280;35679;38.732;-121.358;2024-03-29T11:57:57;100792.63;;;17.70
49785;BMP280;35679;38.732;-121.358;2024-03-29T12:00:45;100789.09;;;17.70
49785;BMP280;35679;38.732;-121.358;2024-03-29T12:03:38;100784.38;;;17.72
49785;BMP280;35679;38.732;-121.358;2024-03-29T12:06:27;100787.47;;;17.75
49785;BMP280;35679;38.732;-121.358;2024-03-29T12:09:14;100772.03;;;17.77
49785;BMP280;35679;38.732;-121.358;2024-03-29T12:12:05;100766.50;;;17.78
49785;BMP280;35679;38.732;-121.358;2024-03-29T12:14:57;100769.97;;;17.79
49785;BMP280;35679;38.732;-121.358;2024-03-29T12:17:53;100769.97;;;17.79
49785;BMP280;35679;38.732;-121.358;2024-03-29T12:20:41;100760.50;;;17.83
49785;BMP280;35679;38.732;-121.358;2024-03-29T12:23:29;100755.19;;;17.83
49785;BMP280;35679;38.732;-121.358;2024-03-29T12:26:17;100755.44;;;17.75
49785;BMP280;35679;38.732;-121.358;2024-03-29T12:29:09;100749.44;;;17.79
49785;BMP280;35679;38.732;-121.358;2024-03-29T12:31:59;100755.00;;;17.78
49785;BMP280;35679;38.732;-121.358;2024-03-29T12:34:47;100748.84;;;17.77
49785;BMP280;35679;38.732;-121.358;2024-03-29T12:37:34;100744.09;;;17.79
49785;BMP280;35679;38.732;-121.358;2024-03-29T12:40:24;100751.09;;;17.80
49785;BMP280;35679;38.732;-121.358;2024-03-29T12:43:12;100756.19;;;17.82
49785;BMP280;35679;38.732;-121.358;2024-03-29T12:46:00;100756.19;;;17.82
49785;BMP280;35679;38.732;-121.358;2024-03-29T12:48:47;100751.47;;;17.84
49785;BMP280;35679;38.732;-121.358;2024-03-29T12:51:35;100748.81;;;17.84
49785;BMP280;35679;38.732;-121.358;2024-03-29T12:54:22;100741.84;;;17.83
49785;BMP280;35679;38.732;-121.358;2024-03-29T12:57:10;100737.34;;;17.83
49785;BMP280;35679;38.732;-121.358;2024-03-29T12:59:58;100738.75;;;17.86
49785;BMP280;35679;38.732;-121.358;2024-03-29T13:02:46;100730.75;;;17.86
49785;BMP280;35679;38.732;-121.358;2024-03-29T13:05:35;100726.44;;;17.85
49785;BMP280;35679;38.732;-121.358;2024-03-29T13:08:26;100728.50;;;17.83
49785;BMP280;35679;38.732;-121.358;2024-03-29T13:11:14;100722.94;;;17.84
49785;BMP280;35679;38.732;-121.358;2024-03-29T13:14:02;100725.59;;;17.84
49785;BMP280;35679;38.732;-121.358;2024-03-29T13:16:49;100715.97;;;17.83
49785;BMP280;35679;38.732;-121.358;2024-03-29T13:19:37;100714.91;;;17.84
49785;BMP280;35679;38.732;-121.358;2024-03-29T13:22:24;100708.34;;;17.87
49785;BMP280;35679;38.732;-121.358;2024-03-29T13:25:13;100698.72;;;17.86
49785;BMP280;35679;38.732;-121.358;2024-03-29T13:28:00;100688.03;;;17.86
49785;BMP280;35679;38.732;-121.358;2024-03-29T13:30:48;100688.03;;;17.86
49785;BMP280;35679;38.732;-121.358;2024-03-29T13:33:38;100688.44;;;17.83
49785;BMP280;35679;38.732;-121.358;2024-03-29T13:36:26;100684.53;;;17.85
49785;BMP280;35679;38.732;-121.358;2024-03-29T13:39:14;100676.53;;;17.85
49785;BMP280;35679;38.732;-121.358;2024-03-29T13:42:02;100674.69;;;17.86
49785;BMP280;35679;38.732;-121.358;2024-03-29T13:44:50;100667.50;;;17.86
49785;BMP280;35679;38.732;-121.358;2024-03-29T13:47:39;100674.69;;;17.86
49785;BMP280;35679;38.732;-121.358;2024-03-29T13:50:28;100667.50;;;17.86
49785;BMP280;35679;38.732;-121.358;2024-03-29T13:53:15;100668.31;;;17.87
49785;BMP280;35679;38.732;-121.358;2024-03-29T13:56:03;100667.50;;;17.86
49785;BMP280;35679;38.732;-121.358;2024-03-29T13:58:51;100666.69;;;17.86
49785;BMP280;35679;38.732;-121.358;2024-03-29T14:01:39;100657.03;;;17.85
49785;BMP280;35679;38.732;-121.358;2024-03-29T14:04:27;100660.28;;;17.87
49785;BMP280;35679;38.732;-121.358;2024-03-29T14:07:15;100660.75;;;17.84
49785;BMP280;35679;38.732;-121.358;2024-03-29T14:10:05;100659.94;;;17.83
49785;BMP280;35679;38.732;-121.358;2024-03-29T14:12:54;100652.72;;;17.84
49785;BMP280;35679;38.732;-121.358;2024-03-29T14:15:42;100656.19;;;17.84
49785;BMP280;35679;38.732;-121.358;2024-03-29T14:18:29;100642.06;;;17.84
49785;BMP280;35679;38.732;-121.358;2024-03-29T14:21:18;100642.66;;;17.86
49785;BMP280;35679;38.732;-121.358;2024-03-29T14:24:06;100637.31;;;17.86
49785;BMP280;35679;38.732;-121.358;2024-03-29T14:26:54;100633.03;;;17.85
49785;BMP280;35679;38.732;-121.358;2024-03-29T14:29:42;100632.00;;;17.86
49785;BMP280;35679;38.732;-121.358;2024-03-29T14:32:32;100632.56;;;17.88
49785;BMP280;35679;38.732;-121.358;2024-03-29T14:35:19;100632.00;;;17.86
49785;BMP280;35679;38.732;-121.358;2024-03-29T14:38:07;100632.78;;;17.86
49785;BMP280;35679;38.732;-121.358;2024-03-29T14:40:55;100634.44;;;17.87
49785;BMP280;35679;38.732;-121.358;2024-03-29T14:43:43;100632.00;;;17.86
49785;BMP280;35679;38.732;-121.358;2024-03-29T14:46:34;100623.16;;;17.85
49785;BMP280;35679;38.732;-121.358;2024-03-29T14:49:22;100625.59;;;17.87
49785;BMP280;35679;38.732;-121.358;2024-03-29T14:52:10;100624.56;;;17.88
49785;BMP280;35679;38.732;-121.358;2024-03-29T14:54:57;100623.75;;;17.87
49785;BMP280;35679;38.732;-121.358;2024-03-29T14:57:45;100622.13;;;17.86
49785;BMP280;35679;38.732;-121.358;2024-03-29T15:00:33;100618.66;;;17.86
49785;BMP280;35679;38.732;-121.358;2024-03-29T15:03:21;100620.25;;;17.87
49785;BMP280;35679;38.732;-121.358;2024-03-29T15:06:09;100611.44;;;17.86
49785;BMP280;35679;38.732;-121.358;2024-03-29T15:08:57;100614.34;;;17.85
49785;BMP280;35679;38.732;-121.358;2024-03-29T15:11:45;100615.97;;;17.86
49785;BMP280;35679;38.732;-121.358;2024-03-29T15:14:33;100604.06;;;17.88
49785;BMP280;35679;38.732;-121.358;2024-03-29T15:17:22;100613.66;;;17.89
49785;BMP280;35679;38.732;-121.358;2024-03-29T15:20:10;100612.84;;;17.89